D/T METAR WX W/DIR W/SPE G/SPE TEMP DEWP
19/03/19 20:21 EGUN 192021Z AUTO M 9999 BKN047 09/09 A3035 RMK AO2 SLP281 $ N (0°) 9°C 9°C
19/03/19 19:56 EGUN 191956Z 21005KT 9999 SCT065 10/10 A3035 RMK AO2A SLP281 T00950095 WND DATA ESTMD . SSW (210°) 5.8mph 9.5°C 9.5°C
19/03/19 18:56 EGUN 191856Z COR AUTO 21005KT 9999 OVC120 10/10 A3034 RMK AO2 SLP278 T01030103 WND DATA ESTMD $ COR 1917 SSW (210°) 5.8mph 10.3°C 10.3°C
19/03/19 17:56 EGUN 191756Z 21004KT 9999 FEW039 BKN050 OVC120 11/11 A3032 RMK AO2A SLP271 T01130113 10133 20113 53010 WND DATAT ESTMD . SSW (210°) 4.6mph 11.3°C 11.3°C
19/03/19 17:46 EGUN 191746Z 21005KT 9999 OVC048 12/12 A3032 RMK AO2A SLP271 WND DATA ESTMD $ SSW (210°) 5.8mph 12°C 12°C
19/03/19 16:56 EGUN 191656Z AUTO M 9999 OVC045 12/12 A3030 RMK AO2 SLP264 T01210119 . N (0°) 12.1°C 11.9°C
19/03/19 16:26 EGUN 191626Z AUTO 25008G18KT 9999 OVC048 13/11 A3029 RMK AO2 SLP261 $ WSW (250°) 9.2mph 20.7mph 13°C 11°C
19/03/19 15:56 EGUN 191556Z 24007KT 9999 OVC050 13/11 A3029 RMK SLPNO WND DATA ESTMD . WSW (240°) 8.1mph 13°C 11°C
19/03/19 15:24 EGUN 191524Z 25009KT 9999 FEW031 BKN055 13/11 A3030 RMK SLPNO WND DATA ESTMD $ WSW (250°) 10.4mph 13°C 11°C
19/03/19 15:21 EGUN 191521Z 25011KT 9999 FEW031 BKN050 13/11 A3029 RMK SLPNO WND DATA ESTMD $ WSW (250°) 12.7mph 13°C 11°C
19/03/19 14:27 EGUN 191427Z 24007KT 9999 SCT028 OVC049 13/11 A3029 RMK SLPNO WND DATA ESTMD $ WSW (240°) 8.1mph 13°C 11°C
19/03/19 14:21 EGUN 191421Z 23007KT 9999 BKN028 BKN048 OVC055 13/11 A3029 RMK SLPNO WND DATA ESTMD $ SW (230°) 8.1mph 13°C 11°C
19/03/19 12:56 EGUN 191256Z 26008KT 9999 SCT024 OVC055 13/12 A3031 RMK AO2A SLP267 WND DATA ESTMD T01280117 . W (260°) 9.2mph 12.8°C 11.7°C
19/03/19 12:51 EGUN 191251Z 22009KT 9999 BKN024 OVC060 13/12 A3030 RMK AO2A CIG 024V060 SLP264 WND DATA ESTMD $ SW (220°) 10.4mph 13°C 12°C
19/03/19 11:56 EGUN 191156Z 24006KT 9999 FEW022 SCT042 BKN050 OVC060 12/12 A3031 RMK AO2A SLP267 70003 WND DATA ESTMD T01170117 10122 20052 50004 . WSW (240°) 6.9mph 11.7°C 11.7°C
19/03/19 11:31 EGUN 191131Z 23005KT 9999 SCT021 BKN041 OVC060 12/12 A3031 RMK AO2A SLP267 WND DATA ESTMD $ SW (230°) 5.8mph 12°C 12°C
19/03/19 11:16 EGUN 191116Z 25008KT 9999 BKN020 OVC026 12/12 A3031 RMK AO2A CIG 017V024 SLP267 WND DATA ESTMD $ WSW (250°) 9.2mph 12°C 12°C
19/03/19 10:31 EGUN 191031Z 23006KT 9999 SCT011 SCT037 11/11 A3030 RMK AO2A SLP264 WND DATA ESTMD $ SW (230°) 6.9mph 11°C 11°C
19/03/19 10:21 EGUN 191021Z 22005KT 9999 SCT011 BKN038 11/11 A3030 RMK AO2A SLP264 WND DATA ESTMD $ SW (220°) 5.8mph 11°C 11°C
19/03/19 09:36 EGUN 190936Z 26004KT 9999 SCT009 OVC038 10/10 A3030 RMK AO2A SLP264 WND DATA ESTMD $ W (260°) 4.6mph 10°C 10°C
19/03/19 09:06 EGUN 190906Z 25007KT 9999 FEW009 SCT015 OVC038 09/09 A3030 RMK AO2A SLP264 WND DATA ESTMD $ WSW (250°) 8.1mph 9°C 9°C
19/03/19 08:26 EGUN 190826Z 25007KT 9999 BKN013 OVC038 08/08 A3029 RMK AO2A CIG 013V038 BKN V SCT SLP261 WND DATA ESTMD $ WSW (250°) 8.1mph 8°C 8°C
19/03/19 07:56 EGUN 190756Z 23005KT 8000 BR OVC036 08/08 A3028 RMK AO2A SLP257 WND DATA ESTMD T00800080 . BR SW (230°) 5.8mph 8°C 8°C
19/03/19 07:11 EGUN 190711Z 24005KT 6000 BR SCT016 OVC036 07/07 A3027 RMK AO2A SLP254 WND DATA ESTMD $ BR WSW (240°) 5.8mph 7°C 7°C
19/03/19 06:41 EGUN 190641Z 23004KT 5000 BR OVC015 06/06 A3026 RMK AO2A SLP251 WND DATA ESTMD $ BR SW (230°) 4.6mph 6°C 6°C
19/03/19 06:21 EGUN 190621Z 20005KT 6000 BR BKN017 05/05 A3025 RMK AO2A SLP247 WND DATA ESTMD $ BR SSW (200°) 5.8mph 5°C 5°C
19/03/19 05:41 EGUN 190541Z 19004KT 8000 BR BKN015 OVC026 05/05 A3025 RMK AO2A CIG 015V026 SLP247 WND DATA ESTMD $ BR S (190°) 4.6mph 5°C 5°C
19/03/19 05:11 EGUN 190511Z 17001KT 9999 BKN022 OVC029 05/05 A3025 RMK AO2A CIG 021 RWY11 SLP247 WND DATA ESTMD $ S (170°) 1.2mph 5°C 5°C
19/03/19 04:46 EGUN 190446Z 22004KT 9999 FEW013 BKN026 OVC036 05/05 A3025 RMK AO2A SLP247 WND DATA ESTMD $ SW (220°) 4.6mph 5°C 5°C
19/03/19 04:01 EGUN 190401Z 22005KT 9999 SCT034 BKN055 OVC075 05/05 A3024 RMK AO2A SLP244 WND DATA ESTMD $ SW (220°) 5.8mph 5°C 5°C
19/03/19 02:56 EGUN 190256Z 21002KT 9999 OVC038 05/05 A3023 RMK AO2A SLP240 WND DATA ESTMD T00520052 51005 . SSW (210°) 2.3mph 5.2°C 5.2°C
19/03/19 02:16 EGUN 190216Z 00000KT 9999 BKN043 BKN055 05/05 A3023 RMK AO2A SLP240 WND DATA ESTMD $ N (0°) 5°C 5°C
19/03/19 00:56 EGUN 190056Z 25004KT 9999 OVC060 05/05 A3023 RMK AO2A SLP240 WND DATA ESTMD T00510051 . WSW (250°) 4.6mph 5.1°C 5.1°C
18/03/19 23:56 EGUN 182356Z 23006KT 9999 OVC055 05/05 A3022 RMK AO2A SLP237 T00530053 10090 20036 401160011 52004 WND DATA ESTMD . SW (230°) 6.9mph 5.3°C 5.3°C
18/03/19 22:56 EGUN 182256Z 20002KT 9999 OVC060 05/05 A3022 RMK AO2A SLP237 T00540054 WND DATA ESTMD . SSW (200°) 2.3mph 5.4°C 5.4°C
18/03/19 21:56 EGUN 182156Z 16001KT 9999 OVC060 04/04 A3021 RMK AO2A SLP234 T00410041 WND DATA ESTMD . SSE (160°) 1.2mph 4.1°C 4.1°C
18/03/19 20:56 EGUN 182056Z COR AUTO 17003KT 9999 CLR 05/05 A3021 RMK AO2 SLP234 T00450045 52018 WND DATA ESTMD $ COR 2121 S (170°) 3.5mph 4.5°C 4.5°C
18/03/19 19:56 EGUN 181956Z 00000KT 9999 SCT039 05/05 A3019 RMK AO2A SLP227 T00500050 WND DATA ESTMD . N (0°) 5°C 5°C
18/03/19 18:56 EGUN 181856Z 27003KT 9999 SCT042 08/08 A3018 RMK AO2A SLP223 T00760076 WND DATA ESTMD . W (270°) 3.5mph 7.6°C 7.6°C
18/03/19 18:31 EGUN 181831Z AUTO M 9999 BKN040 07/07 A3017 RMK AO2 SLP220 $ N (0°) 7°C 7°C
18/03/19 17:56 EGUN 181756Z 27005KT 9999 SCT040 BKN055 OVC075 09/08 A3015 RMK AO2A SLP213 60003 T00910079 10116 20078 52015 WND DATA ESTMD . W (270°) 5.8mph 9.1°C 7.9°C
18/03/19 16:56 EGUN 181656Z 22001KT 9999 FEW041 SCT080 09/07 A3013 RMK AO2A SLP207 T00870068 WND DATA ESTMD . SW (220°) 1.2mph 8.7°C 6.8°C
18/03/19 15:56 EGUN 181556Z 21004KT 9999 FEW050 SCT065 BKN095 09/06 A3012 RMK AO2A RAB01E34 SLP203 P0003 WND DATA ESTMD T00880059 . SSW (210°) 4.6mph 8.8°C 5.9°C
18/03/19 15:39 EGUN 181539Z 18001KT 9999 FEW035 SCT042 BKN050 BKN065 09/07 A3012 RMK AO2A RAB01E34 SLP203 WND DATA ESTMD $ S (180°) 1.2mph 9°C 7°C
18/03/19 15:06 EGUN 181506Z 29010KT 9999 RA SCT034 BKN046 BKN060 10/08 A3012 RMK AO2A RAB01 SLP203 WND DATA ESTMD $ RA WNW (290°) 11.5mph 10°C 8°C
18/03/19 13:56 EGUN 181356Z 29011KT 9999 CLR 10/07 A3011 RMK AO2A SLP200 WND DATA ESTMD T00980070 . WNW (290°) 12.7mph 9.8°C 7°C
18/03/19 12:56 EGUN 181256Z 33006KT 9999 OVC060 10/06 A3011 RMK AO2A SLP200 T01030061 WND DATA ESTMD . NNW (330°) 6.9mph 10.3°C 6.1°C
18/03/19 12:21 EGUN 181221Z 27006KT 9999 FEW028 SCT034 SCT050 SCT065 10/08 A3011 RMK AO2A SLP200 WND DATA ESTMD $ W (270°) 6.9mph 10°C 8°C
18/03/19 11:41 EGUN 181141Z 29010KT 9999 SCT027 BKN039 BKN048 BKN070 10/07 A3010 RMK AO2A SLP196 WND DATA ESTMD $ WNW (290°) 11.5mph 10°C 7°C
18/03/19 11:06 EGUN 181106Z 28015KT 9999 BKN023 BKN030 OVC039 09/08 A3010 RMK AO2A CIG 023V030 BKN023 V SCT SLP196 WND DATA ESTMD $ W (280°) 17.3mph 9°C 8°C
18/03/19 10:46 EGUN 181046Z 30009KT 9999 BKN021 BKN030 09/08 A3010 RMK AO2A CIG 021V030 BKN021 V SCT SLP196 WND DATA ESTMD $ WNW (300°) 10.4mph 9°C 8°C
18/03/19 10:16 EGUN 181016Z 29007KT 9999 SCT019 BKN028 BKN034 09/09 A3009 RMK AO2A CIG 026V034 SLP193 WND DATA ESTMD $ WNW (290°) 8.1mph 9°C 9°C
18/03/19 08:56 EGUN 180856Z 28010KT 9999 FEW050 06/06 A3007 RMK AO2A SLP186 WND DATA ESTMD T00640064 52019 . W (280°) 11.5mph 6.4°C 6.4°C
18/03/19 07:56 EGUN 180756Z 27008KT 9999 CLR 05/05 A3006 RMK AO2A SLP183 WND DATA ESTMD T00490049 . W (270°) 9.2mph 4.9°C 4.9°C
18/03/19 06:56 EGUN 180656Z 27005KT 9999 CLR 03/03 A3004 RMK AO2A SLP176 WND DATA ESTMD T00330033 . W (270°) 5.8mph 3.3°C 3.3°C
18/03/19 05:56 EGUN 180556Z 26004KT 9999 CLR 02/02 A3002 RMK AO2A SLP169 WND DATA ESTMD T00240024 10039 20011 52018 . W (260°) 4.6mph 2.4°C 2.4°C
18/03/19 05:01 EGUN 180501Z 29006KT 9999 SCT045 BKN055 04/04 A3000 RMK AO2A SLP163 WND DATA ESTMD $ WNW (290°) 6.9mph 4°C 4°C
18/03/19 04:41 EGUN 180441Z 28009KT 9999 SCT036 BKN048 BKN055 04/04 A2999 RMK AO2A SLP159 WND DATA ESTMD $ W (280°) 10.4mph 4°C 4°C
18/03/19 04:06 EGUN 180406Z 27006KT 9999 BKN049 OVC065 03/03 A2998 RMK AO2A SLP156 WND DATA ESTMD $ W (270°) 6.9mph 3°C 3°C
18/03/19 02:56 EGUN 180256Z 28006KT 9999 OVC060 03/03 A2996 RMK AO2A SLP149 WND DATA ESTMD T00270027 52021 . W (280°) 6.9mph 2.7°C 2.7°C
18/03/19 01:56 EGUN 180156Z 27006KT 9999 BKN065 02/02 A2995 RMK AO2A SLP146 WND DATA ESTMD T00200020 . W (270°) 6.9mph 2°C 2°C
18/03/19 00:56 EGUN 180056Z 29004KT 9999 CLR 01/01 A2992 RMK AO2A SLP136 WND DATA ESTMD T00140014 . WNW (290°) 4.6mph 1.4°C 1.4°C
17/03/19 23:56 EGUN 172356Z 28006KT 9999 FEW027 03/03 A2990 RMK AO2A SLP129 WND DATA ESTMD T00250025 10068 20025 400950025 52026 . W (280°) 6.9mph 2.5°C 2.5°C
17/03/19 22:56 EGUN 172256Z 27008KT 9999 CLR 03/03 A2988 RMK AO2A SLP122 WND DATA ESTMD T00320032 . W (270°) 9.2mph 3.2°C 3.2°C
17/03/19 21:56 EGUN 172156Z 28009KT 9999 CLR 04/04 A2985 RMK AO2A SLP112 WND DATA ESTMD T00410041 . W (280°) 10.4mph 4.1°C 4.1°C
17/03/19 21:01 EGUN 172101Z 26008KT 9999 SCT044 05/05 A2982 RMK AO2A SLP102 WND DATA ESTMD $ W (260°) 9.2mph 5°C 5°C
17/03/19 19:56 EGUN 171956Z AUTO M 9999 OVC044 05/05 A2979 RMK AO2 SLP091 T00490049 . N (0°) 4.9°C 4.9°C
17/03/19 19:41 EGUN 171941Z 26009KT 9999 BKN046 05/05 A2978 RMK AO2A SLP088 WBD DATA ESTMD $ W (260°) 10.4mph 5°C 5°C
17/03/19 18:56 EGUN 171856Z 25008KT 9999 CLR 05/05 A2976 RMK AO2A SLP081 WND DATA ESTMD T00540053 . WSW (250°) 9.2mph 5.4°C 5.3°C
17/03/19 17:56 EGUN 171756Z 26015KT 9999 SCT043 SCT060 07/06 A2973 RMK AO2A SLP071 WND DATA ESTMD 60006 T00680056 10095 20032 52023 . W (260°) 17.3mph 6.8°C 5.6°C
17/03/19 17:46 EGUN 171746Z 26011KT 9999 SCT041 BKN055 07/06 A2972 RMK AO2A SLP068 WND DATA ESTMD $ W (260°) 12.7mph 7°C 6°C
17/03/19 16:56 EGUN 171656Z 26014KT 9999 FEW036 07/07 A2970 RMK AO2A SLP061 WND DATA ESTMD T00730066 . W (260°) 16.1mph 7.3°C 6.6°C
17/03/19 15:56 EGUN 171556Z 27013KT 9999 CLR 06/06 A2969 RMK AO2A PK WND 29032/04 RAB04E37 SLP058 WND DATA ESTMD P0006 T00580058 . W (270°) 15.0mph 5.8°C 5.8°C
17/03/19 15:42 EGUN 171542Z 25012KT 9999 SCT026 05/05 A2968 RMK AO2A RAB04E37 SLP054 WND DATA ESTMD $ WSW (250°) 13.8mph 5°C 5°C
17/03/19 15:09 EGUN 171509Z 29018G32KT 9999 -RA SCT037 BKN047 BKN060 BKN075 07/03 A2968 RMK AO2A RAB04 SLP054 WND DATA ESTMD $ -RA WNW (290°) 20.7mph 36.8mph 7°C 3°C
17/03/19 14:37 EGUN 171437Z 26015G25KT 9999 SCT043 BKN060 08/04 A2965 RMK AO2A RAB12E37 SLP044 WND DATA ESTMD $ W (260°) 17.3mph 28.8mph 8°C 4°C
17/03/19 14:12 EGUN 171412Z 30016KT 9999 -RA FEW038 FEW046 SCT060 BKN085 08/00 A2965 RMK AO2A RAB12 SLP044 WND DATA ESTMD $ -RA WNW (300°) 18.4mph 8°C 0°C
17/03/19 13:37 EGUN 171337Z 27014G22KT 9999 SCT043 BKN060 OVC080 09/02 A2964 RMK AO2A RAB20E31DZB31E32 SLP041 WND DATA ESTMD $ W (270°) 16.1mph 25.3mph 9°C 2°C
17/03/19 12:56 EGUN 171256Z 27015KT 9999 SCT045 BKN060 OVC070 08/02 A2963 RMK AO2A RAB27E37DZB37E38 SLP037 WND DATA ESTMD P0000 T00770017 . W (270°) 17.3mph 7.7°C 1.7°C
17/03/19 12:43 EGUN 171243Z 27017KT 9999 SCT046 OVC070 07/02 A2964 RMK AO2A RAB27E37DZB37E38 SLP041 WND DATA ESTMD $ W (270°) 19.6mph 7°C 2°C
17/03/19 12:16 EGUN 171216Z 27014KT 9999 FEW038 SCT047 OVC060 08/01 A2963 RMK AO2A SLP037 WND DATA ESTMD $ W (270°) 16.1mph 8°C 1°C
17/03/19 11:46 EGUN 171146Z 27017G25KT 9999 SCT039 BKN049 BKN060 09/02 A2963 RMK AO2A SLP037 WND DATA ESTMD $ W (270°) 19.6mph 28.8mph 9°C 2°C
17/03/19 10:56 EGUN 171056Z 28019G29KT 9999 BKN035 OVC049 07/03 A2961 RMK AO2A PK WND 26029/25 SLP030 WND DATA ESTMD T00740034 . W (280°) 21.9mph 33.4mph 7.4°C 3.4°C
17/03/19 10:26 EGUN 171026Z 27022KT 9999 BKN031 OVC039 08/04 A2960 RMK AO2A SLP027 WND DATA ESTMD $ W (270°) 25.3mph 8°C 4°C
17/03/19 09:56 EGUN 170956Z AUTO M 9999 BKN029 BKN038 07/05 A2958 RMK AO2 PK WND 28026/51 SLP020 T00730054 . N (0°) 7.3°C 5.4°C
17/03/19 09:31 EGUN 170931Z 26018G25KT 9999 BKN026 07/06 A2958 RMK AO2A BKN V SCT SLP020 WND DATA ESTMD $ W (260°) 20.7mph 28.8mph 7°C 6°C
17/03/19 08:56 EGUN 170856Z 26016G23KT 9999 CLR 06/06 A2956 RMK AO2A SLP013 T00630063 52027 . W (260°) 18.4mph 26.5mph 6.3°C 6.3°C
17/03/19 07:56 EGUN 170756Z 26012KT 9999 CLR 05/05 A2954 RMK AO2A SLP007 WND DATA ESTMD T00520052 . W (260°) 13.8mph 5.2°C 5.2°C
17/03/19 06:56 EGUN 170656Z 25008KT 9999 SCT037 04/04 A2951 RMK AO2A SLP997 WND DATA ESTMD T00410041 . WSW (250°) 9.2mph 4.1°C 4.1°C
17/03/19 06:11 EGUN 170611Z 25010KT 9999 SCT029 SCT038 04/04 A2949 RMK AO2A SLP990 WND DATA ESTMD $ WSW (250°) 11.5mph 4°C 4°C
17/03/19 05:01 EGUN 170501Z 27012KT 9999 SCT022 SCT032 04/04 A2945 RMK AO2A SLP976 WND DATA ESTMD $ W (270°) 13.8mph 4°C 4°C
17/03/19 04:40 EGUN 170440Z 26012KT 9999 SCT022 BKN027 BKN044 OVC060 05/05 A2944 RMK AO2A RAB00E09RAB17E35 CIG 023V045 BKN027 V SCT CIG 024 RWY11 SLP973 WND DATA ESTMD $ W (260°) 13.8mph 5°C 5°C
17/03/19 04:22 EGUN 170422Z 27013KT 9999 -RA FEW025 FEW034 BKN044 OVC065 05/05 A2943 RMK AO2A RAB00E09RAB17 SLP969 WND DATA ESTMD $ -RA W (270°) 15.0mph 5°C 5°C
17/03/19 03:41 EGUN 170341Z 25010KT 9999 BKN025 OVC041 05/05 A2942 RMK AO2A CIG 025V041 BKN V SCT SLP966 WND DATA ESTMD $ WSW (250°) 11.5mph 5°C 5°C
17/03/19 02:56 EGUN 170256Z 25009KT 9999 FEW024 BKN034 OVC130 05/05 A2940 RMK AO2A RAB0159E09 SLP959 WND DATA ESTMD P0000 60000 T00540054 52017 . WSW (250°) 10.4mph 5.4°C 5.4°C
17/03/19 02:09 EGUN 170209Z 25011KT 9999 FEW030 BKN038 BKN090 06/06 A2938 RMK AO2A RAB0159E09 SLP952 WND DATA ESTMD $ WSW (250°) 12.7mph 6°C 6°C
17/03/19 01:41 EGUN 170141Z 25009KT 9999 BKN044 OVC100 06/06 A2938 RMK AO2A SLP952 WND DATA ESTMD $ WSW (250°) 10.4mph 6°C 6°C
17/03/19 00:56 EGUN 170056Z 25007KT 9999 FEW100 05/05 A2937 RMK AO2A SLP949 WND DATA ESTMD T00540054 . WSW (250°) 8.1mph 5.4°C 5.4°C
16/03/19 23:56 EGUN 162356Z 25007KT 9999 SCT033 OVC075 06/06 A2935 RMK AO2A RAE18 SLP942 WND DATA ESTMD P0002 60010 T00620062 10112 20059 401350059 52019 . WSW (250°) 8.1mph 6.2°C 6.2°C
16/03/19 23:18 EGUN 162318Z 27013KT 9999 FEW030 SCT041 BKN055 06/06 A2934 RMK AO2A RAE18 SLP939 WND DATA ESTMD $ W (270°) 15.0mph 6°C 6°C
16/03/19 22:36 EGUN 162236Z 28009G19KT 9999 -RA SCT018 BKN024 BKN035 OVC041 07/07 A2934 RMK AO2A CIG 020V041 CIG 020 RWY11 PRESRR SLP939 WND DATA ESTMD $ -RA W (280°) 10.4mph 21.9mph 7°C 7°C
16/03/19 21:56 EGUN 162156Z 24019G23KT 9999 -RA BKN017 BKN023 10/10 A2931 RMK AO2A PK WND 21026/2057 CIG 017V026 BKN017 V SCT SLP929 WND DATA ESTMD P0001 T00950095 . -RA WSW (240°) 21.9mph 26.5mph 9.5°C 9.5°C
16/03/19 21:32 EGUN 162132Z 24018G24KT 9999 -RA FEW015 SCT019 BKN027 BKN034 BKN047 BKN055 10/10 A2930 RMK AO2A CIG 026V034 BKN027 V SCT CIG 022 RWY11 SLP925 WND DATA ESTMD $ -RA WSW (240°) 20.7mph 27.6mph 10°C 10°C
16/03/19 21:07 EGUN 162107Z 22016G23KT 9999 -RA SCT015 BKN021 BKN027 OVC038 10/10 A2930 RMK AO2A CIG 016V021 SLP925 WND DATA ESTMD $ -RA SW (220°) 18.4mph 26.5mph 10°C 10°C
16/03/19 20:40 EGUN 162040Z 21018G28KT 9999 -RA BKN016 BKN028 OVC041 10/10 A2929 RMK AO2A DZE1957RAB1957E39RAB40 BKN016 V OVC SLP922 WND DATA ESTMD $ -RA SSW (210°) 20.7mph 32.2mph 10°C 10°C
16/03/19 20:01 EGUN 162001Z 21024KT 9999 -RA OVC016 10/10 A2930 RMK AO2A DZE1957RAB1957 SLP925 WND DATA ESTMD $ -RA SSW (210°) 27.6mph 10°C 10°C
16/03/19 19:37 EGUN 161937Z 21020G31KT 9999 -DZ OVC018 10/10 A2930 RMK AO2A RAB08E25DZB37 SLP925 WND DATA ESTMD $ -DZ SSW (210°) 23.0mph 35.7mph 10°C 10°C
16/03/19 19:08 EGUN 161908Z 21023G31KT 9999 -RA OVC018 11/11 A2932 RMK AO2A RAB08 SLP932 WND DATA ESTMD $ -RA SSW (210°) 26.5mph 35.7mph 11°C 11°C
16/03/19 18:31 EGUN 161831Z COR AUTO 22022G35KT 9999 BKN019 OVC026 11/11 A2933 RMK AO2 SLP935 WND DATA ESTMD $ COR 1844 SW (220°) 25.3mph 40.3mph 11°C 11°C
16/03/19 17:56 EGUN 161756Z 22022G35KT 9999 OVC024 11/11 A2934 RMK AO2A PK WND 23036/06 SLP939 T01130111 10135 20113 57020 . SW (220°) 25.3mph 40.3mph 11.3°C 11.1°C
16/03/19 16:56 EGUN 161656Z 22024G38KT 9999 OVC026 12/11 A2935 RMK AO2A PK WND 23038/49 SLP942 WND DATA ESTMD T01190105 . SW (220°) 27.6mph 43.7mph 11.9°C 10.5°C
16/03/19 15:56 EGUN 161556Z 22021G33KT 9999 OVC028 12/10 A2937 RMK AO2A PK WND 21038/34 SLP949 WND DATA ESTMD T01210100 . SW (220°) 24.2mph 38.0mph 12.1°C 10°C
16/03/19 15:26 EGUN 161526Z AUTO M 9999 OVC030 13/10 A2937 RMK AO2 PRESFR SLP949 $ N (0°) 13°C 10°C
16/03/19 15:11 EGUN 161511Z 22028KT 9999 OVC029 13/10 A2939 RMK AO2A SLP956 WND DATA ESTMD $ SW (220°) 32.2mph 13°C 10°C
16/03/19 13:56 EGUN 161356Z 22022G29KT 9999 OVC033 13/10 A2943 RMK AO2A PK WND 23036/00 SLP969 WND DATA ESTMD T01270101 . SW (220°) 25.3mph 33.4mph 12.7°C 10.1°C
16/03/19 12:56 EGUN 161256Z AUTO M 9999 OVC033 13/09 A2946 RMK AO2 PK WND 23040/39 SLP979 T01320093 . N (0°) 13.2°C 9.3°C
16/03/19 12:26 EGUN 161226Z 23028G37KT 9999 OVC030 13/10 A2947 RMK AO2A SLP983 WND DATA ESTMD $ SW (230°) 32.2mph 42.6mph 13°C 10°C
16/03/19 12:06 EGUN 161206Z 22023G34KT 9999 OVC029 13/11 A2949 RMK AO2A SLP990 WND DATA ESTMD $ SW (220°) 26.5mph 39.1mph 13°C 11°C
16/03/19 11:36 EGUN 161136Z 23528G39KT 9999 OVC030 12/11 A2950 RMK AO2A SLP993 WND DATA ESTMD $ SW (235°) 32.2mph 44.9mph 12°C 11°C
16/03/19 10:56 EGUN 161056Z 23024G34KT 9999 OVC029 12/11 A2951 RMK AO2A PK WND 23038/31 SLP996 WND DATA ESTMD T01210107 . SW (230°) 27.6mph 39.1mph 12.1°C 10.7°C
16/03/19 09:56 EGUN 160956Z 24027G34KT 9999 OVC025 12/12 A2953 RMK AO2A PK WND 23037/37 SLP003 WND DATA ESTMD T01170117 . WSW (240°) 31.1mph 39.1mph 11.7°C 11.7°C
16/03/19 08:56 EGUN 160856Z 23022G30KT 9999 OVC025 12/12 A2954 RMK AO2A PK WND 24031/0759 SLP006 WND DATA ESTMD T01150115 57019 . SW (230°) 25.3mph 34.5mph 11.5°C 11.5°C
16/03/19 08:16 EGUN 160816Z 23020G28KT 9999 OVC025 11/11 A2956 RMK SLP013 WND DATA ESTMD $ SW (230°) 23.0mph 32.2mph 11°C 11°C
16/03/19 07:45 EGUN 160745Z 22020G30KT 9999 SCT021 BKN030 BKN080 BKN100 11/11 A2955 RMK AO2A SLP010 WND DATA ESTMD $ SW (220°) 23.0mph 34.5mph 11°C 11°C
16/03/19 06:56 EGUN 160656Z 24022G31KT 9999 BKN020 BKN027 OVC095 11/11 A2957 RMK PK WND 23031/05 CIG 020V030 SLP017 WND DATA ESTMD T01110111 . WSW (240°) 25.3mph 35.7mph 11.1°C 11.1°C
16/03/19 05:56 EGUN 160556Z 23025G29KT 9999 SCT019 OVC037 11/11 A2960 RMK AO2A PK WND 23030/40 RAB0458E08 SLP027 WND DATA ESTMD P0000 60009 T01090109 10109 20080 57019 . SW (230°) 28.8mph 33.4mph 10.9°C 10.9°C
16/03/19 04:58 EGUN 160458Z 23021G25KT 9999 -RA SCT017 OVC065 11/11 A2962 RMK AO2A RAB58 SLP034 WND DATA ESTMD $ -RA SW (230°) 24.2mph 28.8mph 11°C 11°C
16/03/19 04:46 EGUN 160446Z 23023G27KT 9999 SCT017 BKN024 OVC065 11/11 A2962 RMK AO2A RAE21 CIG 017V024 SLP034 WND DATA ESTMD $ SW (230°) 26.5mph 31.1mph 11°C 11°C
16/03/19 03:56 EGUN 160356Z 20419G24KT 9999 -RA OVC013 11/11 A2964 RMK AO2A RAE47RAB55 SLP040 WND DATA ESTMD P0001 T01050105 . -RA SSW (204°) 21.9mph 27.6mph 10.5°C 10.5°C
16/03/19 03:30 EGUN 160330Z 22012G18KT 9999 -RA OVC010 10/10 A2964 RMK AO2A SLP040 WND DATA ESTMD $ -RA SW (220°) 13.8mph 20.7mph 10°C 10°C
16/03/19 03:15 EGUN 160315Z 24012KT 9999 -RA OVC010 10/10 A2964 RMK AO2A CIG 008 RWY11 PRESFR SLP040 WND DATA ESTMD $ -RA WSW (240°) 13.8mph 10°C 10°C
16/03/19 01:56 EGUN 160156Z 16005KT 9999 -RA BR BKN010 OVC017 08/08 A2971 RMK AO2A CIG 010V017 SLP064 WND DATA ESTMD P0004 T00820082 . -RA BR SSE (160°) 5.8mph 8.2°C 8.2°C
16/03/19 01:35 EGUN 160135Z 18006KT 9999 -RA FEW009 BKN015 OVC020 08/08 A2972 RMK AO2A CIG 015V020 SLP067 WND DATA ESTMD $ -RA S (180°) 6.9mph 8°C 8°C
16/03/19 01:00 EGUN 160100Z 22010KT 9999 -RA SCT032 OVC048 08/08 A2975 RMK AO2A SLP078 WND DATA ESTMD $ -RA SW (220°) 11.5mph 8°C 8°C
16/03/19 00:23 EGUN 160023Z 23012KT 9999 -RA OVC048 09/09 A2975 RMK AO2A RAB09 SLP078 WND DATA ESTMD $ -RA SW (230°) 13.8mph 9°C 9°C
16/03/19 00:09 EGUN 160009Z AUTO M 9999 -RA OVC050 09/09 A2976 RMK AO2 RAB09 SLP081 $ -RA N (0°) 9°C 9°C
15/03/19 23:21 EGUN 152321Z 24008KT 9999 SCT046 OVC060 09/09 A2978 RMK AO2A SLP088 WND DATA ESTMD $ WSW (240°) 9.2mph 9°C 9°C
15/03/19 21:56 EGUN 152156Z AUTO M 9999 SCT038 BKN055 OVC090 09/08 A2979 RMK AO2 SLP091 T00890077 . N (0°) 8.9°C 7.7°C
15/03/19 20:56 EGUN 152056Z 25008KT 9999 FEW055 OVC130 09/07 A2978 RMK AO2A SLP088 WND DATA ESTMD T00940068 52020 . WSW (250°) 9.2mph 9.4°C 6.8°C
15/03/19 19:56 EGUN 151956Z 27016KT 9999 FEW050 SCT140 OVC180 10/06 A2975 RMK AO2A SLP078 WND DATA ESTMD T00980063 . W (270°) 18.4mph 9.8°C 6.3°C
15/03/19 19:41 EGUN 151941Z 28012KT 9999 SCT047 OVC170 10/06 A2975 RMK AO2A SLP078 WND DATA ESTMD $ W (280°) 13.8mph 10°C 6°C
15/03/19 18:56 EGUN 151856Z 27006KT 9999 BKN045 OVC055 10/05 A2975 RMK AO2A SLP078 WND DATA ESTMD T01010049 . W (270°) 6.9mph 10.1°C 4.9°C
15/03/19 18:46 EGUN 151846Z 29007KT 9999 BKN047 BKN055 10/04 A2975 RMK AO2A SLP078 WND DATA ESTMD $ WNW (290°) 8.1mph 10°C 4°C
15/03/19 17:56 EGUN 151756Z 29016G22KT 9999 CLR 11/05 A2972 RMK AO2A SLP067 WND DATA ESTMD T01060045 10156 20106 52023 . WNW (290°) 18.4mph 25.3mph 10.6°C 4.5°C